Time;durP1;ratioP1;P1;durP2;ratioP2;P2;SDS_P1;SDS_P2;PMS_P1;PMS_P2;Temp;Humidity;BMP_temperature;BMP_pressure;BME280_temperature;BME280_humidity;BME280_pressure;Samples;Min_cycle;Max_cycle;Signal;HPM_P1;HPM_P2
2022/02/27 00:00:15;;;;;;;4.10;3.90;;;1.90;99.90;;;;;;5031054;28;20307;-76
2022/02/27 00:02:42;;;;;;;0.50;0.40;;;1.90;99.90;;;;;;5031071;28;20229;-76
2022/02/27 00:05:11;;;;;;;0.50;0.40;;;1.90;99.90;;;;;;5031190;28;20237;-76
2022/02/27 00:07:37;;;;;;;0.50;0.40;;;1.80;99.90;;;;;;5031747;28;20561;-76
2022/02/27 00:10:05;;;;;;;0.50;0.40;;;1.80;99.90;;;;;;5030910;28;20194;-75
2022/02/27 00:12:32;;;;;;;0.50;0.40;;;1.70;99.90;;;;;;5031560;28;20581;-75
2022/02/27 00:14:58;;;;;;;0.50;0.40;;;1.70;99.90;;;;;;5031729;28;20722;-76
2022/02/27 00:17:25;;;;;;;0.50;0.40;;;1.70;99.90;;;;;;5031046;28;20198;-75
2022/02/27 00:19:52;;;;;;;0.50;0.50;;;1.70;99.90;;;;;;5030572;28;20225;-76
2022/02/27 00:22:20;;;;;;;0.50;0.40;;;1.70;99.90;;;;;;5031533;28;20206;-76
2022/02/27 00:24:46;;;;;;;0.50;0.40;;;1.60;99.90;;;;;;5029812;28;20202;-75
2022/02/27 00:27:13;;;;;;;0.50;0.40;;;1.50;99.90;;;;;;5031402;28;20203;-76
2022/02/27 00:29:40;;;;;;;0.50;0.40;;;1.50;99.90;;;;;;5031215;28;20198;-76
2022/02/27 00:32:07;;;;;;;0.50;0.40;;;1.50;99.90;;;;;;5035209;28;20203;-74
2022/02/27 00:34:34;;;;;;;0.50;0.40;;;1.40;99.90;;;;;;5034708;28;20558;-76
2022/02/27 00:37:01;;;;;;;0.50;0.45;;;1.40;99.90;;;;;;5035016;28;20207;-76
2022/02/27 00:39:29;;;;;;;0.50;0.40;;;1.30;99.90;;;;;;5034022;28;20584;-76
2022/02/27 00:41:55;;;;;;;0.50;0.40;;;1.30;99.90;;;;;;5032684;28;20227;-76
2022/02/27 00:44:22;;;;;;;0.50;0.40;;;1.30;99.90;;;;;;5034545;28;20215;-76
2022/02/27 00:46:49;;;;;;;0.50;0.40;;;1.30;99.90;;;;;;5035178;28;20197;-76
2022/02/27 00:49:15;;;;;;;0.50;0.40;;;1.20;99.90;;;;;;5033942;28;20201;-76
2022/02/27 00:51:42;;;;;;;0.50;0.50;;;1.20;99.90;;;;;;5034618;28;20622;-75
2022/02/27 00:54:09;;;;;;;0.50;0.40;;;1.10;99.90;;;;;;5034376;28;20233;-73
2022/02/27 00:56:37;;;;;;;0.50;0.40;;;1.10;99.90;;;;;;5034018;28;20340;-76
2022/02/27 00:59:04;;;;;;;0.50;0.40;;;1.10;99.90;;;;;;5033296;28;20207;-75
2022/02/27 01:01:31;;;;;;;0.50;0.40;;;1.10;99.90;;;;;;5034285;28;20226;-76
2022/02/27 01:03:58;;;;;;;0.50;0.40;;;1.00;99.90;;;;;;5034120;28;20285;-76
2022/02/27 01:06:25;;;;;;;0.50;0.40;;;1.00;99.90;;;;;;5034102;28;20209;-76
2022/02/27 01:08:53;;;;;;;0.50;0.40;;;0.90;99.90;;;;;;5033717;28;20603;-75
2022/02/27 01:11:20;;;;;;;0.50;0.40;;;0.90;99.90;;;;;;5033949;28;20201;-76
2022/02/27 01:13:48;;;;;;;0.50;0.40;;;0.90;99.90;;;;;;5033944;28;20711;-76
2022/02/27 01:16:14;;;;;;;0.50;0.40;;;0.80;99.90;;;;;;5034348;28;20195;-76
2022/02/27 01:18:41;;;;;;;0.50;0.40;;;0.70;99.90;;;;;;5034144;28;20599;-76
2022/02/27 01:21:08;;;;;;;0.50;0.40;;;0.70;99.90;;;;;;5033529;28;20291;-76
2022/02/27 01:23:34;;;;;;;0.50;0.40;;;0.60;99.90;;;;;;5034124;28;20229;-76
2022/02/27 01:26:01;;;;;;;0.50;0.40;;;0.60;99.90;;;;;;5033561;28;20623;-76
2022/02/27 01:28:28;;;;;;;0.50;0.40;;;0.60;99.90;;;;;;5034223;28;20206;-76
2022/02/27 01:30:56;;;;;;;0.50;0.40;;;0.60;99.90;;;;;;5033251;28;20584;-75
2022/02/27 01:33:22;;;;;;;0.50;0.50;;;0.60;99.90;;;;;;5033527;28;20711;-76
2022/02/27 01:35:49;;;;;;;0.50;0.40;;;0.60;99.90;;;;;;5033532;28;20252;-76
2022/02/27 01:38:16;;;;;;;0.50;0.40;;;0.60;99.90;;;;;;5033256;28;20198;-76
2022/02/27 01:40:42;;;;;;;4.95;4.65;;;0.50;99.90;;;;;;5030453;28;20218;-76
2022/02/27 01:43:09;;;;;;;0.50;0.40;;;0.40;99.90;;;;;;5033479;28;20272;-76
2022/02/27 01:45:36;;;;;;;0.50;0.40;;;0.40;99.90;;;;;;5033687;28;20204;-76
2022/02/27 01:48:05;;;;;;;0.50;0.40;;;0.40;99.90;;;;;;5033526;28;20197;-76
2022/02/27 01:50:31;;;;;;;0.50;0.40;;;0.40;99.90;;;;;;5032716;28;20195;-76
2022/02/27 01:52:58;;;;;;;0.50;0.40;;;0.40;99.90;;;;;;5033259;28;20226;-76
2022/02/27 01:55:25;;;;;;;0.50;0.40;;;0.40;99.90;;;;;;5033443;28;20565;-76
2022/02/27 01:57:51;;;;;;;0.50;0.40;;;0.40;99.90;;;;;;5033389;28;20264;-76
2022/02/27 02:00:18;;;;;;;0.50;0.40;;;0.40;99.90;;;;;;5032723;28;20213;-75
2022/02/27 02:02:47;;;;;;;0.50;0.40;;;0.30;99.90;;;;;;5032549;28;20229;-76
2022/02/27 02:05:15;;;;;;;0.50;0.50;;;0.30;99.90;;;;;;5033115;28;20251;-76
2022/02/27 02:07:42;;;;;;;0.50;0.40;;;0.30;99.90;;;;;;5033209;28;20196;-76
2022/02/27 02:10:10;;;;;;;0.50;0.50;;;0.30;99.90;;;;;;5032339;28;20201;-76
2022/02/27 02:12:37;;;;;;;0.50;0.40;;;0.30;99.90;;;;;;5032814;28;20711;-76
2022/02/27 02:15:05;;;;;;;0.50;0.43;;;0.30;99.90;;;;;;5032994;28;20223;-76
2022/02/27 02:17:32;;;;;;;0.50;0.50;;;0.30;99.90;;;;;;5033042;28;20206;-76
2022/02/27 02:20:00;;;;;;;0.50;0.40;;;0.30;99.90;;;;;;5032149;28;20628;-76
2022/02/27 02:22:26;;;;;;;0.50;0.50;;;0.20;99.90;;;;;;5032623;28;20217;-76
2022/02/27 02:24:53;;;;;;;0.50;0.40;;;0.20;99.90;;;;;;5032532;28;20206;-77
2022/02/27 02:27:20;;;;;;;0.50;0.40;;;0.10;99.90;;;;;;5032539;28;20671;-74
2022/02/27 02:29:46;;;;;;;0.50;0.40;;;0.10;99.90;;;;;;5031739;28;20658;-77
2022/02/27 02:32:13;;;;;;;0.50;0.50;;;0.00;99.90;;;;;;5032357;28;20200;-75
2022/02/27 02:34:40;;;;;;;0.50;0.40;;;0.10;99.90;;;;;;5032523;28;20201;-77
2022/02/27 02:37:11;;;;;;;0.50;0.40;;;0.00;99.90;;;;;;5032909;28;20260;-76
2022/02/27 02:39:38;;;;;;;0.50;0.50;;;0.00;99.90;;;;;;5032072;28;20266;-77
2022/02/27 02:42:05;;;;;;;0.50;0.40;;;0.10;99.90;;;;;;5030335;28;20305;-76
2022/02/27 02:44:31;;;;;;;0.50;0.50;;;0.00;99.90;;;;;;5032285;28;20286;-76
2022/02/27 02:46:58;;;;;;;0.50;0.40;;;0.00;99.90;;;;;;5032512;28;20230;-78
2022/02/27 02:49:25;;;;;;;0.50;0.40;;;-0.10;99.90;;;;;;5031374;28;20270;-76
2022/02/27 02:51:53;;;;;;;0.50;0.40;;;-0.10;99.90;;;;;;5032449;28;20225;-76
2022/02/27 02:54:21;;;;;;;0.50;0.40;;;-0.10;99.90;;;;;;5031992;28;20275;-76
2022/02/27 02:56:48;;;;;;;0.55;0.45;;;-0.10;99.90;;;;;;5032409;28;20194;-76
2022/02/27 02:59:15;;;;;;;0.50;0.40;;;-0.10;99.90;;;;;;5031525;28;20201;-76
2022/02/27 03:01:41;;;;;;;0.50;0.50;;;-0.10;99.90;;;;;;5031984;28;20230;-77
2022/02/27 03:04:08;;;;;;;0.50;0.40;;;-0.20;99.90;;;;;;5031830;28;20223;-76
2022/02/27 03:06:35;;;;;;;0.50;0.50;;;-0.20;99.90;;;;;;5031985;28;20191;-77
2022/02/27 03:09:01;;;;;;;0.50;0.40;;;-0.10;99.90;;;;;;5031789;28;20197;-77
2022/02/27 03:11:29;;;;;;;0.50;0.40;;;-0.10;99.90;;;;;;5032150;28;20694;-76
2022/02/27 03:14:00;;;;;;;0.50;0.40;;;-0.20;99.90;;;;;;5031824;28;20225;-78
2022/02/27 03:16:27;;;;;;;0.50;0.40;;;-0.20;99.90;;;;;;5031910;28;20202;-76
2022/02/27 03:18:54;;;;;;;0.50;0.50;;;-0.30;99.90;;;;;;5031566;28;20706;-76
2022/02/27 03:21:21;;;;;;;0.50;0.50;;;-0.40;99.90;;;;;;5031715;28;20212;-76
2022/02/27 03:23:49;;;;;;;0.50;0.40;;;-0.40;99.90;;;;;;5031971;28;20228;-76
2022/02/27 03:26:17;;;;;;;0.50;0.40;;;-0.50;99.90;;;;;;5031306;28;20302;-77
2022/02/27 03:28:45;;;;;;;0.50;0.40;;;-0.50;99.90;;;;;;5031796;28;20724;-76
2022/02/27 03:31:12;;;;;;;0.50;0.50;;;-0.50;99.90;;;;;;5031386;28;20197;-76
2022/02/27 03:33:38;;;;;;;0.50;0.40;;;-0.50;99.90;;;;;;5031898;28;20216;-76
2022/02/27 03:36:05;;;;;;;0.50;0.40;;;-0.50;99.90;;;;;;5031768;28;20566;-76
2022/02/27 03:38:32;;;;;;;0.50;0.40;;;-0.60;99.90;;;;;;5031563;28;20205;-76
2022/02/27 03:40:59;;;;;;;0.50;0.40;;;-0.60;99.90;;;;;;5028694;28;20211;-76
2022/02/27 03:43:25;;;;;;;0.50;0.40;;;-0.60;99.90;;;;;;5031909;28;20218;-76
2022/02/27 03:45:53;;;;;;;0.50;0.50;;;-0.50;99.90;;;;;;5031953;28;20551;-76
2022/02/27 03:48:20;;;;;;;0.50;0.43;;;-0.50;99.90;;;;;;5031375;28;20264;-72
2022/02/27 03:50:46;;;;;;;0.50;0.40;;;-0.40;99.90;;;;;;5030565;28;20205;-77
2022/02/27 03:53:13;;;;;;;0.50;0.50;;;-0.40;99.90;;;;;;5031834;28;20619;-71
2022/02/27 03:55:40;;;;;;;0.50;0.40;;;-0.40;99.90;;;;;;5031634;28;20687;-76
2022/02/27 03:58:06;;;;;;;0.50;0.50;;;-0.30;99.90;;;;;;5031557;28;20665;-76
2022/02/27 04:00:33;;;;;;;0.50;0.40;;;-0.30;99.90;;;;;;5030278;28;20222;-78
2022/02/27 04:03:01;;;;;;;0.50;0.40;;;-0.30;99.90;;;;;;5032404;28;20640;-77
2022/02/27 04:05:28;;;;;;;0.50;0.40;;;-0.40;99.90;;;;;;5034531;28;20227;-77
2022/02/27 04:07:54;;;;;;;0.50;0.40;;;-0.30;99.90;;;;;;5035548;28;20205;-76
2022/02/27 04:10:21;;;;;;;0.50;0.40;;;-0.30;99.90;;;;;;5034966;28;20202;-76
2022/02/27 04:12:48;;;;;;;0.50;0.40;;;-0.30;99.90;;;;;;5035216;28;20249;-77
2022/02/27 04:15:15;;;;;;;0.50;0.40;;;-0.20;99.90;;;;;;5035359;28;20202;-73
2022/02/27 04:17:41;;;;;;;0.50;0.40;;;-0.20;99.90;;;;;;5034881;28;20202;-76
2022/02/27 04:20:10;;;;;;;0.50;0.40;;;-0.20;99.90;;;;;;5034551;28;20212;-76
2022/02/27 04:22:37;;;;;;;0.50;0.50;;;-0.20;99.90;;;;;;5035145;28;20219;-76
2022/02/27 04:25:04;;;;;;;0.50;0.40;;;-0.20;99.90;;;;;;5035114;28;20201;-76
2022/02/27 04:27:31;;;;;;;0.50;0.40;;;-0.20;99.90;;;;;;5035245;28;20193;-76
2022/02/27 04:29:58;;;;;;;0.50;0.50;;;-0.30;99.90;;;;;;5033911;28;20198;-76
2022/02/27 04:32:24;;;;;;;0.50;0.40;;;-0.20;99.90;;;;;;5034603;28;20201;-76
2022/02/27 04:34:51;;;;;;;0.50;0.40;;;-0.30;99.90;;;;;;5035335;28;20592;-77
2022/02/27 04:37:19;;;;;;;0.50;0.40;;;-0.30;99.90;;;;;;5034642;28;20672;-74
2022/02/27 04:39:46;;;;;;;0.50;0.40;;;-0.20;99.90;;;;;;5033857;28;20195;-77
2022/02/27 04:42:12;;;;;;;0.50;0.40;;;-0.20;99.90;;;;;;5032704;28;20289;-73
2022/02/27 04:44:39;;;;;;;0.50;0.50;;;-0.30;99.90;;;;;;5035161;28;20198;-75
2022/02/27 04:47:06;;;;;;;0.50;0.40;;;-0.30;99.90;;;;;;5034373;28;20245;-76
2022/02/27 04:49:32;;;;;;;0.50;0.40;;;-0.30;99.90;;;;;;5033800;28;20195;-76
2022/02/27 04:51:59;;;;;;;0.50;0.40;;;-0.20;99.90;;;;;;5034406;28;20200;-75
2022/02/27 04:54:27;;;;;;;0.50;0.40;;;-0.30;99.90;;;;;;5034637;28;20227;-76
2022/02/27 04:56:54;;;;;;;0.50;0.40;;;-0.30;99.90;;;;;;5034167;28;20251;-76
2022/02/27 04:59:20;;;;;;;0.50;0.40;;;-0.30;99.90;;;;;;5033755;28;20247;-76
2022/02/27 05:01:47;;;;;;;0.50;0.40;;;-0.30;99.90;;;;;;5034288;28;20208;-76
2022/02/27 05:04:14;;;;;;;0.50;0.40;;;-0.30;99.90;;;;;;5033877;28;20792;-75
2022/02/27 05:06:41;;;;;;;1.13;1.13;;;-0.30;99.90;;;;;;5034355;28;20196;-76
2022/02/27 05:09:09;;;;;;;0.50;0.40;;;-0.30;99.90;;;;;;5033318;28;20203;-74
2022/02/27 05:11:36;;;;;;;0.50;0.40;;;-0.20;99.90;;;;;;5034103;28;20197;-76
2022/02/27 05:14:03;;;;;;;0.50;0.40;;;-0.20;99.90;;;;;;5033878;28;20215;-76
2022/02/27 05:16:30;;;;;;;0.50;0.47;;;-0.30;99.90;;;;;;5033002;28;20643;-75
2022/02/27 05:18:57;;;;;;;0.50;0.43;;;-0.30;99.90;;;;;;5033512;28;20561;-77
2022/02/27 05:21:23;;;;;;;0.50;0.40;;;-0.40;99.90;;;;;;5034006;28;20221;-76
2022/02/27 05:23:50;;;;;;;0.50;0.40;;;-0.30;99.90;;;;;;5033963;28;20221;-76
2022/02/27 05:26:17;;;;;;;0.50;0.40;;;-0.30;99.90;;;;;;5033689;28;20204;-76
2022/02/27 05:28:45;;;;;;;0.50;0.40;;;-0.30;99.90;;;;;;5034192;28;20203;-77
2022/02/27 05:31:12;;;;;;;0.50;0.40;;;-0.30;99.90;;;;;;5033489;28;20702;-76
2022/02/27 05:33:39;;;;;;;0.50;0.50;;;-0.30;99.90;;;;;;5034026;28;20714;-76
2022/02/27 05:36:06;;;;;;;0.50;0.50;;;-0.40;99.90;;;;;;5033948;28;20214;-76
2022/02/27 05:38:33;;;;;;;0.50;0.40;;;-0.30;99.90;;;;;;5033346;28;20204;-75
2022/02/27 05:41:00;;;;;;;0.50;0.40;;;-0.30;99.90;;;;;;5031425;28;20290;-77
2022/02/27 05:43:27;;;;;;;0.50;0.40;;;-0.30;99.90;;;;;;5033532;28;20221;-76
2022/02/27 05:45:55;;;;;;;0.50;0.40;;;-0.30;99.90;;;;;;5033219;28;20247;-76
2022/02/27 05:48:21;;;;;;;0.50;0.40;;;-0.30;99.90;;;;;;5033596;28;20197;-71
2022/02/27 05:50:48;;;;;;;0.50;0.40;;;-0.30;99.90;;;;;;5032800;28;20196;-76
2022/02/27 05:53:15;;;;;;;0.50;0.40;;;-0.40;99.90;;;;;;5033596;28;20242;-72
2022/02/27 05:55:41;;;;;;;0.50;0.40;;;-0.40;99.90;;;;;;5032907;28;20199;-76
2022/02/27 05:58:08;;;;;;;0.50;0.40;;;-0.40;99.90;;;;;;5033097;28;20199;-76
2022/02/27 06:00:35;;;;;;;0.50;0.40;;;-0.40;99.90;;;;;;5032431;28;20222;-76
2022/02/27 06:03:03;;;;;;;0.50;0.50;;;-0.40;99.90;;;;;;5032488;28;20220;-76
2022/02/27 06:05:30;;;;;;;0.50;0.40;;;-0.40;99.90;;;;;;5033216;28;20198;-76
2022/02/27 06:07:56;;;;;;;0.50;0.40;;;-0.40;99.90;;;;;;5033416;28;20627;-76
2022/02/27 06:10:24;;;;;;;0.50;0.40;;;-0.40;99.90;;;;;;5032035;28;20250;-76
2022/02/27 06:12:51;;;;;;;0.50;0.40;;;-0.40;99.90;;;;;;5033468;28;20259;-76
2022/02/27 06:15:18;;;;;;;0.50;0.40;;;-0.40;99.90;;;;;;5033381;28;20205;-73
2022/02/27 06:17:45;;;;;;;0.50;0.50;;;-0.50;99.90;;;;;;5032343;28;20204;-76
2022/02/27 06:20:14;;;;;;;0.50;0.40;;;-0.50;99.90;;;;;;5032460;28;20200;-75
2022/02/27 06:22:42;;;;;;;0.50;0.40;;;-0.50;99.90;;;;;;5032808;28;20217;-76
2022/02/27 06:25:10;;;;;;;0.50;0.40;;;-0.50;99.90;;;;;;5032779;28;20254;-75
2022/02/27 06:27:42;;;;;;;1.45;1.35;;;-0.50;99.90;;;;;;5032538;28;20597;-75
2022/02/27 06:30:10;;;;;;;0.50;0.40;;;-0.50;99.90;;;;;;5032067;28;20186;-75
2022/02/27 06:32:36;;;;;;;0.50;0.50;;;-0.50;99.90;;;;;;5032368;28;20709;-75
2022/02/27 06:35:03;;;;;;;0.50;0.40;;;-0.50;99.90;;;;;;5033430;28;20203;-76
2022/02/27 06:37:31;;;;;;;0.50;0.40;;;-0.50;99.90;;;;;;5032057;28;20200;-75
2022/02/27 06:39:58;;;;;;;0.52;0.52;;;-0.50;99.90;;;;;;5031739;28;20200;-75
2022/02/27 06:42:25;;;;;;;0.50;0.40;;;-0.40;99.90;;;;;;5031666;28;20627;-75
2022/02/27 06:44:51;;;;;;;0.50;0.40;;;-0.40;99.90;;;;;;5032834;28;20206;-75
2022/02/27 06:47:19;;;;;;;0.50;0.40;;;-0.40;99.90;;;;;;5032509;28;20258;-75
2022/02/27 06:49:45;;;;;;;0.50;0.40;;;-0.30;99.90;;;;;;5031445;28;20224;-75
2022/02/27 06:52:12;;;;;;;0.50;0.40;;;-0.30;99.90;;;;;;5032159;28;20261;-75
2022/02/27 06:54:40;;;;;;;0.50;0.40;;;-0.20;99.90;;;;;;5032120;28;20246;-75
2022/02/27 06:57:07;;;;;;;0.50;0.40;;;-0.10;99.90;;;;;;5032074;28;20191;-75
2022/02/27 06:59:33;;;;;;;0.50;0.40;;;0.00;99.90;;;;;;5031538;28;20200;-75
2022/02/27 07:02:00;;;;;;;0.70;0.70;;;0.10;99.90;;;;;;5032246;28;20273;-75
2022/02/27 07:04:27;;;;;;;0.77;0.75;;;0.20;99.90;;;;;;5031742;28;20461;-75
2022/02/27 07:06:53;;;;;;;0.50;0.40;;;0.30;99.90;;;;;;5032374;28;20204;-76
2022/02/27 07:09:21;;;;;;;0.50;0.40;;;0.40;99.90;;;;;;5030693;28;20607;-76
2022/02/27 07:11:49;;;;;;;0.50;0.40;;;0.60;99.90;;;;;;5032201;28;20291;-76
2022/02/27 07:14:17;;;;;;;0.50;0.40;;;0.70;99.90;;;;;;5031904;28;20308;-73
2022/02/27 07:16:44;;;;;;;0.50;0.50;;;0.80;99.90;;;;;;5031696;28;20200;-76
2022/02/27 07:19:11;;;;;;;0.50;0.40;;;0.90;99.90;;;;;;5030932;28;20203;-75
2022/02/27 07:21:38;;;;;;;0.50;0.40;;;1.10;99.90;;;;;;5032296;28;20280;-75
2022/02/27 07:24:05;;;;;;;0.60;0.52;;;1.20;99.90;;;;;;5031506;28;20227;-75
2022/02/27 07:26:32;;;;;;;0.50;0.50;;;1.30;99.90;;;;;;5032143;28;20197;-76
2022/02/27 07:29:00;;;;;;;3.45;2.67;;;1.40;99.90;;;;;;5030467;28;20674;-76
2022/02/27 07:31:27;;;;;;;0.50;0.40;;;1.40;99.90;;;;;;5031769;28;20736;-72
2022/02/27 07:33:54;;;;;;;0.50;0.50;;;1.50;99.90;;;;;;5031993;28;20213;-77
2022/02/27 07:36:20;;;;;;;0.60;0.60;;;1.60;99.90;;;;;;5031904;28;20663;-73
2022/02/27 07:38:47;;;;;;;0.90;0.68;;;1.80;99.90;;;;;;5031082;28;20258;-74
2022/02/27 07:41:14;;;;;;;0.50;0.40;;;2.30;99.90;;;;;;5034146;28;20220;-77
2022/02/27 07:43:40;;;;;;;0.50;0.40;;;2.90;99.90;;;;;;5035117;28;20718;-76
2022/02/27 07:46:08;;;;;;;0.50;0.40;;;3.40;99.90;;;;;;5035963;28;20608;-76
2022/02/27 07:48:35;;;;;;;0.50;0.40;;;4.00;99.90;;;;;;5035372;28;20203;-77
2022/02/27 07:51:02;;;;;;;0.60;0.60;;;4.60;99.90;;;;;;5034827;28;20264;-76
2022/02/27 07:53:28;;;;;;;0.50;0.40;;;5.30;99.90;;;;;;5035611;28;20237;-76
2022/02/27 07:55:55;;;;;;;0.50;0.40;;;6.00;99.90;;;;;;5035599;28;20211;-76
2022/02/27 07:58:22;;;;;;;0.50;0.40;;;6.60;99.90;;;;;;5035789;28;20672;-74
2022/02/27 08:00:49;;;;;;;0.82;0.82;;;7.50;99.90;;;;;;5034239;28;20206;-75
2022/02/27 08:03:17;;;;;;;0.60;0.40;;;7.90;99.90;;;;;;5035085;28;20578;-72
2022/02/27 08:05:43;;;;;;;0.50;0.40;;;7.90;99.90;;;;;;5039378;28;20605;-76
2022/02/27 08:08:10;;;;;;;0.50;0.40;;;8.30;99.90;;;;;;5035545;28;20251;-76
2022/02/27 08:10:37;;;;;;;0.50;0.40;;;9.20;99.90;;;;;;5034796;28;20603;-76
2022/02/27 08:13:03;;;;;;;0.50;0.40;;;10.30;99.90;;;;;;5035178;28;20241;-76
2022/02/27 08:15:30;;;;;;;0.70;0.70;;;11.40;99.90;;;;;;5035187;28;20198;-77
2022/02/27 08:17:57;;;;;;;0.50;0.40;;;12.00;93.00;;;;;;5035645;28;20604;-77
2022/02/27 08:20:25;;;;;;;0.50;0.40;;;12.80;89.40;;;;;;5034610;28;20712;-76
2022/02/27 08:22:51;;;;;;;0.70;0.70;;;13.70;82.30;;;;;;5035074;28;20277;-76
2022/02/27 08:25:18;;;;;;;0.60;0.60;;;14.60;78.30;;;;;;5034623;28;20442;-72
2022/02/27 08:27:45;;;;;;;0.50;0.30;;;15.50;76.00;;;;;;5035187;28;20446;-77
2022/02/27 08:30:13;;;;;;;0.50;0.40;;;16.00;69.80;;;;;;5034480;28;20526;-75
2022/02/27 08:32:39;;;;;;;0.50;0.40;;;16.70;66.90;;;;;;5035259;28;20458;-77
2022/02/27 08:35:07;;;;;;;0.50;0.40;;;16.60;63.10;;;;;;5034708;28;20445;-77
2022/02/27 08:37:35;;;;;;;0.50;0.40;;;16.50;62.60;;;;;;5034947;28;20441;-77
2022/02/27 08:40:02;;;;;;;0.50;0.40;;;17.20;61.60;;;;;;5033039;28;20496;-73
2022/02/27 08:42:30;;;;;;;0.50;0.40;;;17.70;60.30;;;;;;5034837;28;20496;-76
2022/02/27 08:44:57;;;;;;;0.50;0.40;;;18.20;58.70;;;;;;5034646;28;20448;-77
2022/02/27 08:47:23;;;;;;;0.50;0.50;;;19.00;58.00;;;;;;5034743;28;20469;-75
2022/02/27 08:49:50;;;;;;;7.17;3.80;;;19.70;55.60;;;;;;5033866;28;20486;-78
2022/02/27 08:52:17;;;;;;;0.50;0.50;;;19.80;54.90;;;;;;5034292;28;20454;-77
2022/02/27 08:54:46;;;;;;;0.73;0.73;;;20.10;54.10;;;;;;5034803;28;20472;-77
2022/02/27 08:57:13;;;;;;;0.50;0.30;;;20.00;53.50;;;;;;5034532;28;20442;-77
2022/02/27 08:59:40;;;;;;;0.50;0.30;;;19.90;53.40;;;;;;5033898;28;20464;-77
2022/02/27 09:02:07;;;;;;;0.50;0.40;;;20.60;53.40;;;;;;5034282;28;20483;-77
2022/02/27 09:04:34;;;;;;;0.50;0.40;;;21.00;52.30;;;;;;5034115;28;20478;-77
2022/02/27 09:07:00;;;;;;;0.50;0.30;;;21.90;51.90;;;;;;5034539;28;20475;-75
2022/02/27 09:09:27;;;;;;;0.50;0.30;;;22.30;49.90;;;;;;5033389;28;20975;-77
2022/02/27 09:11:57;;;;;;;0.50;0.30;;;22.20;49.00;;;;;;5034075;28;20846;-75
2022/02/27 09:14:24;;;;;;;0.50;0.40;;;22.20;48.70;;;;;;5034046;28;20847;-75
2022/02/27 09:16:50;;;;;;;0.70;0.70;;;21.90;48.20;;;;;;5034373;28;20461;-75
2022/02/27 09:19:17;;;;;;;0.50;0.30;;;21.90;48.40;;;;;;5033233;28;20450;-75
2022/02/27 09:21:44;;;;;;;30.40;2.53;;;21.80;48.70;;;;;;5033590;28;20450;-75
2022/02/27 09:24:10;;;;;;;0.50;0.30;;;22.40;48.80;;;;;;5033878;28;20527;-73
2022/02/27 09:26:37;;;;;;;0.77;0.50;;;23.00;47.50;;;;;;5033790;28;20450;-73
2022/02/27 09:29:05;;;;;;;0.50;0.40;;;22.90;46.60;;;;;;5033013;28;20446;-75
2022/02/27 09:31:32;;;;;;;0.50;0.30;;;22.80;48.00;;;;;;5033954;28;20492;-75
2022/02/27 09:33:58;;;;;;;0.60;0.40;;;23.10;47.00;;;;;;5033662;28;20504;-75
2022/02/27 09:36:26;;;;;;;0.73;0.73;;;22.90;45.90;;;;;;5033849;28;20472;-77
2022/02/27 09:38:53;;;;;;;0.50;0.40;;;22.40;46.50;;;;;;5032814;28;20920;-75
2022/02/27 09:41:19;;;;;;;0.50;0.30;;;22.40;46.50;;;;;;5032335;28;20442;-75
2022/02/27 09:43:53;;;;;;;0.50;0.30;;;22.60;45.90;;;;;;5033511;28;21006;-76
2022/02/27 09:46:21;;;;;;;1.37;0.67;;;22.10;47.10;;;;;;5033174;28;20488;-74
2022/02/27 09:48:48;;;;;;;0.50;0.30;;;22.00;46.60;;;;;;5032983;28;20426;-74
2022/02/27 09:51:15;;;;;;;0.50;0.40;;;22.30;46.60;;;;;;5033186;28;20448;-74
2022/02/27 09:53:42;;;;;;;0.50;0.30;;;22.30;46.50;;;;;;5033618;28;20458;-75
2022/02/27 09:56:09;;;;;;;0.50;0.40;;;21.70;46.70;;;;;;5033007;28;21011;-75
2022/02/27 09:58:35;;;;;;;0.50;0.40;;;21.60;47.20;;;;;;5033025;28;20454;-75
2022/02/27 10:01:02;;;;;;;0.50;0.33;;;21.20;46.80;;;;;;5032346;28;20438;-75
2022/02/27 10:03:32;;;;;;;0.50;0.30;;;20.40;47.40;;;;;;5032236;28;20561;-75
2022/02/27 10:06:04;;;;;;;0.50;0.30;;;19.80;47.40;;;;;;5094845;23;20512;-80
2022/02/27 10:08:37;;;;;;;0.60;0.40;;;19.30;48.20;;;;;;5045294;28;20452;-75
2022/02/27 10:11:05;;;;;;;0.50;0.40;;;18.50;48.00;;;;;;5053418;28;21001;-78
2022/02/27 10:13:34;;;;;;;0.50;0.30;;;17.90;49.10;;;;;;5055006;28;20432;-81
2022/02/27 10:16:05;;;;;;;0.97;0.97;;;17.10;49.60;;;;;;5056408;28;20980;-81
2022/02/27 10:18:40;;;;;;;0.50;0.30;;;16.60;49.90;;;;;;5058521;28;20433;-80
2022/02/27 10:21:22;;;;;;;0.50;0.40;;;16.00;50.90;;;;;;5056594;28;20514;-80
2022/02/27 10:23:59;;;;;;;0.87;0.87;;;15.50;51.50;;;;;;5058140;28;20464;-80
2022/02/27 10:26:29;;;;;;;0.50;0.33;;;15.30;52.60;;;;;;5057433;28;20514;-80
2022/02/27 10:29:09;;;;;;;1.40;1.20;;;14.70;52.80;;;;;;5056727;28;20950;-81
2022/02/27 10:31:36;;;;;;;0.70;0.60;;;14.00;53.20;;;;;;5057318;28;20433;-79
2022/02/27 10:34:20;;;;;;;0.93;0.67;;;13.90;54.20;;;;;;5057240;28;20439;-81
2022/02/27 10:36:53;;;;;;;0.50;0.40;;;12.90;52.30;;;;;;5055337;28;20425;-79
2022/02/27 10:39:27;;;;;;;0.50;0.40;;;12.30;52.40;;;;;;5055301;28;20861;-79
2022/02/27 10:41:54;;;;;;;0.60;0.50;;;12.00;52.00;;;;;;5055175;28;20430;-80
2022/02/27 10:44:23;;;;;;;0.60;0.60;;;11.70;52.10;;;;;;5055102;28;20901;-79
2022/02/27 10:47:08;;;;;;;0.50;0.40;;;12.10;52.60;;;;;;5055657;28;20473;-80
2022/02/27 10:49:37;;;;;;;0.50;0.40;;;12.10;52.60;;;;;;5054846;28;20976;-78
2022/02/27 10:52:11;;;;;;;0.60;0.50;;;11.80;51.90;;;;;;5055694;28;20206;-80
2022/02/27 10:54:39;;;;;;;0.60;0.50;;;12.20;52.20;;;;;;5056153;28;20990;-80
2022/02/27 10:57:06;;;;;;;0.60;0.60;;;12.10;52.00;;;;;;5056130;28;20438;-79
2022/02/27 10:59:33;;;;;;;2.50;0.50;;;12.40;52.10;;;;;;5054882;28;20441;-82
2022/02/27 11:02:00;;;;;;;0.50;0.40;;;12.60;51.60;;;;;;5055760;28;20495;-79
2022/02/27 11:04:27;;;;;;;1.27;0.50;;;12.60;51.50;;;;;;5055376;28;21006;-80
2022/02/27 11:06:55;;;;;;;4.00;0.60;;;13.20;51.30;;;;;;5055561;28;20838;-80
2022/02/27 11:09:22;;;;;;;0.60;0.40;;;13.80;50.60;;;;;;5054016;28;20992;-79
2022/02/27 11:11:49;;;;;;;1.03;0.63;;;14.20;49.90;;;;;;5055696;28;21014;-79
2022/02/27 11:14:17;;;;;;;0.50;0.40;;;14.20;49.30;;;;;;5055618;28;20433;-79
2022/02/27 11:16:44;;;;;;;0.70;0.70;;;13.60;49.00;;;;;;5059355;28;21073;-80
2022/02/27 11:19:11;;;;;;;0.60;0.43;;;14.20;49.60;;;;;;5054515;28;20518;-79
2022/02/27 11:21:38;;;;;;;1.33;1.23;;;15.10;49.90;;;;;;5055047;28;20441;-80
2022/02/27 11:24:09;;;;;;;0.73;0.60;;;16.10;48.70;;;;;;5056177;28;20472;-79
2022/02/27 11:26:36;;;;;;;0.50;0.40;;;15.20;46.90;;;;;;5055361;28;20463;-78
2022/02/27 11:29:02;;;;;;;1.13;1.03;;;15.30;47.70;;;;;;5054221;28;20440;-80
2022/02/27 11:31:29;;;;;;;0.70;0.57;;;15.60;47.70;;;;;;5055919;28;20444;-80
2022/02/27 11:34:11;;;;;;;0.50;0.40;;;15.50;47.90;;;;;;5055328;28;20433;-80
2022/02/27 11:36:38;;;;;;;0.60;0.40;;;15.30;48.50;;;;;;5056480;28;20439;-79
2022/02/27 11:40:27;;;;;;;0.70;0.60;;;15.60;48.40;;;;;;5055278;28;20471;-81
2022/02/27 11:41:54;;;;;;;0.60;0.50;;;16.00;48.10;;;;;;5054974;28;20819;-79
2022/02/27 11:44:21;;;;;;;0.50;0.40;;;15.60;47.30;;;;;;5056313;28;20482;-80
2022/02/27 11:46:49;;;;;;;1.10;0.40;;;15.60;48.10;;;;;;5055500;28;20494;-78
2022/02/27 11:49:20;;;;;;;0.50;0.40;;;15.60;48.10;;;;;;5054517;28;20871;-80
2022/02/27 11:52:00;;;;;;;0.60;0.50;;;15.60;48.10;;;;;;5055445;28;20444;-79
2022/02/27 11:54:41;;;;;;;1.90;1.80;;;15.10;47.70;;;;;;5055353;28;20870;-79
2022/02/27 11:57:14;;;;;;;0.50;0.40;;;15.50;49.00;;;;;;5055674;28;20421;-80
2022/02/27 12:00:02;;;;;;;0.60;0.50;;;15.60;48.60;;;;;;5055060;28;20794;-80
2022/02/27 12:02:40;;;;;;;0.50;0.40;;;15.20;48.00;;;;;;5061768;28;20532;-78
2022/02/27 12:05:10;;;;;;;0.67;0.67;;;14.50;48.20;;;;;;5055176;28;20477;-80
2022/02/27 12:08:08;;;;;;;0.50;0.40;;;14.80;48.60;;;;;;5055686;28;20451;-78
2022/02/27 12:10:42;;;;;;;0.50;0.30;;;14.90;49.10;;;;;;5055476;28;20439;-81
2022/02/27 12:13:28;;;;;;;0.50;0.40;;;15.10;49.30;;;;;;5056325;28;20429;-79
2022/02/27 12:16:10;;;;;;;0.60;0.50;;;15.00;49.10;;;;;;5057108;28;20457;-79
2022/02/27 12:18:53;;;;;;;0.50;0.30;;;15.90;49.20;;;;;;5056438;28;20814;-80
2022/02/27 12:21:33;;;;;;;1.30;0.70;;;16.20;48.50;;;;;;5056419;28;20417;-79
2022/02/27 12:24:08;;;;;;;0.60;0.40;;;16.20;48.90;;;;;;5055987;28;20564;-78
2022/02/27 12:26:47;;;;;;;0.90;0.63;;;15.70;47.80;;;;;;5057989;28;20865;-80
2022/02/27 12:29:33;;;;;;;0.50;0.40;;;16.20;48.80;;;;;;5059407;28;20516;-79
2022/02/27 12:32:06;;;;;;;0.50;0.40;;;14.90;47.50;;;;;;5059824;28;20425;-80
2022/02/27 12:34:34;;;;;;;0.70;0.40;;;15.20;48.50;;;;;;5060578;28;20441;-79
2022/02/27 12:37:01;;;;;;;0.50;0.40;;;15.80;48.00;;;;;;5061459;28;20452;-78
2022/02/27 12:39:32;;;;;;;2.40;0.70;;;15.40;47.30;;;;;;5059000;28;20533;-79
2022/02/27 12:42:00;;;;;;;0.50;0.40;;;14.40;47.50;;;;;;5058928;28;20425;-78
2022/02/27 12:44:30;;;;;;;0.50;0.50;;;14.10;48.40;;;;;;5060321;28;20485;-79
2022/02/27 12:46:58;;;;;;;0.50;0.40;;;13.50;49.50;;;;;;5060535;28;20457;-78
2022/02/27 12:52:18;;;;;;;0.50;0.40;;;13.70;49.00;;;;;;5061151;28;20456;-77
2022/02/27 12:54:46;;;;;;;1.03;0.87;;;14.20;49.00;;;;;;5061110;28;20466;-79
2022/02/27 12:57:15;;;;;;;0.50;0.50;;;13.80;48.40;;;;;;5060618;28;20446;-79